createdAt,value
2018-07-23T00:00:03.132Z,0
2018-07-23T00:05:03.069Z,0
2018-07-23T00:10:02.556Z,0
2018-07-23T00:15:02.968Z,0
2018-07-23T00:20:02.371Z,0
2018-07-23T00:25:02.781Z,0
2018-07-23T00:30:03.178Z,0
2018-07-23T00:35:02.538Z,0
2018-07-23T00:40:02.950Z,0
2018-07-23T00:45:02.396Z,0
2018-07-23T00:50:02.807Z,0
2018-07-23T00:55:03.202Z,0
2018-07-23T01:00:02.790Z,0
2018-07-23T01:05:03.200Z,0
2018-07-23T01:10:02.618Z,0
2018-07-23T01:15:03.004Z,0
2018-07-23T01:20:02.421Z,0
2018-07-23T01:25:02.829Z,0
2018-07-23T01:30:03.179Z,0
2018-07-23T01:35:02.667Z,0
2018-07-23T01:40:03.081Z,0
2018-07-23T01:45:02.527Z,0
2018-07-23T01:50:03.065Z,0
2018-07-23T01:55:02.443Z,0
2018-07-23T02:00:02.911Z,0
2018-07-23T02:05:02.392Z,0
2018-07-23T02:10:02.852Z,0
2018-07-23T02:15:03.274Z,0
2018-07-23T02:20:02.694Z,0
2018-07-23T02:25:03.046Z,0
2018-07-23T02:30:02.479Z,0
2018-07-23T02:35:02.891Z,0
2018-07-23T02:40:02.407Z,0
2018-07-23T02:45:02.875Z,0
2018-07-23T02:50:03.315Z,0
2018-07-23T02:55:02.766Z,0
2018-07-23T03:00:03.392Z,1
2018-07-23T03:05:02.841Z,2
2018-07-23T03:10:02.496Z,5
2018-07-23T03:15:02.947Z,10
2018-07-23T03:20:02.478Z,19
2018-07-23T03:25:03.131Z,27
2018-07-23T03:30:02.564Z,38
2018-07-23T03:35:03.003Z,52
2018-07-23T03:40:02.444Z,62
2018-07-23T03:45:02.839Z,85
2018-07-23T03:50:03.264Z,135
2018-07-23T03:55:02.627Z,264
2018-07-23T04:00:03.032Z,337
2018-07-23T04:05:02.467Z,421
2018-07-23T04:10:03.102Z,512
2018-07-23T04:15:02.992Z,611
2018-07-23T04:20:02.387Z,686
2018-07-23T04:25:02.782Z,781
2018-07-23T04:30:03.276Z,852
2018-07-23T04:35:02.779Z,949
2018-07-23T04:40:03.217Z,1000
2018-07-23T04:45:02.623Z,1000
2018-07-23T04:50:03.022Z,1000
2018-07-23T04:55:02.426Z,1000
2018-07-23T05:00:02.929Z,1000
2018-07-23T05:05:02.363Z,1000
2018-07-23T05:10:02.849Z,1000
2018-07-23T05:15:03.364Z,1000
2018-07-23T05:20:02.786Z,1000
2018-07-23T05:25:03.251Z,1000
2018-07-23T05:30:02.651Z,1000
2018-07-23T05:35:03.101Z,1000
2018-07-23T05:40:02.598Z,2000
2018-07-23T05:45:03.213Z,2000
2018-07-23T05:50:02.630Z,2000
2018-07-23T05:55:03.046Z,2000
2018-07-23T06:00:02.471Z,2000
2018-07-23T06:05:02.955Z,2000
2018-07-23T06:10:02.391Z,2000
2018-07-23T06:15:02.813Z,2000
2018-07-23T06:20:03.389Z,2000
2018-07-23T06:25:02.856Z,2000
2018-07-23T06:30:03.388Z,2000
2018-07-23T06:35:03.185Z,2000
2018-07-23T06:40:02.647Z,3000
2018-07-23T06:45:03.020Z,3000
2018-07-23T06:50:02.412Z,3000
2018-07-23T06:55:02.793Z,3000
2018-07-23T07:00:03.563Z,3000
2018-07-23T07:05:02.993Z,3000
2018-07-23T07:10:02.423Z,3000
2018-07-23T07:15:02.809Z,3000
2018-07-23T07:20:03.236Z,3000
2018-07-23T07:25:02.666Z,4000
2018-07-23T07:30:03.474Z,4000
2018-07-23T07:35:03.038Z,4000
2018-07-23T07:40:02.610Z,4000
2018-07-23T07:45:03.117Z,4000
2018-07-23T07:50:02.582Z,4000
2018-07-23T07:55:02.933Z,4000
2018-07-23T08:00:03.265Z,5000
2018-07-23T08:05:02.678Z,5000
2018-07-23T08:10:03.169Z,6000
2018-07-23T08:15:02.588Z,35000
2018-07-23T08:20:03.016Z,39000
2018-07-23T08:25:02.488Z,40000
2018-07-23T08:30:03.189Z,41000
2018-07-23T08:35:02.582Z,43000
2018-07-23T08:40:03.461Z,41000
2018-07-23T08:45:03.161Z,43000
2018-07-23T08:50:03.210Z,44000
2018-07-23T08:55:02.592Z,46000
2018-07-23T09:00:03.017Z,47000
2018-07-23T09:05:02.500Z,46000
2018-07-23T09:10:03.064Z,46000
2018-07-23T09:15:02.494Z,49000
2018-07-23T09:20:03.033Z,48000
2018-07-23T09:25:02.477Z,49000
2018-07-23T09:30:02.923Z,47000
2018-07-23T09:35:02.489Z,48000
2018-07-23T09:40:03.006Z,48000
2018-07-23T09:45:02.462Z,49000
2018-07-23T09:50:02.992Z,49000
2018-07-23T09:55:02.618Z,48000
2018-07-23T10:00:03.123Z,49000
2018-07-23T10:05:02.581Z,49000
2018-07-23T10:10:03.014Z,49000
2018-07-23T10:15:02.485Z,48000
2018-07-23T10:20:03.116Z,49000
2018-07-23T10:25:02.484Z,49000
2018-07-23T10:30:02.965Z,48000
2018-07-23T10:35:02.563Z,48000
2018-07-23T10:40:03.284Z,49000
2018-07-23T10:45:02.685Z,49000
2018-07-23T10:50:03.127Z,27000
2018-07-23T10:55:02.589Z,48000
2018-07-23T11:00:03.218Z,48000
2018-07-23T11:05:02.617Z,48000
2018-07-23T11:10:03.160Z,48000
2018-07-23T11:15:02.559Z,48000
2018-07-23T11:20:03.249Z,48000
2018-07-23T11:25:40.664Z,48000
2018-07-23T11:30:02.452Z,47000
2018-07-23T11:35:02.888Z,48000
2018-07-23T11:40:03.328Z,47000
2018-07-23T11:45:02.687Z,47000
2018-07-23T11:50:03.225Z,47000
2018-07-23T11:55:02.638Z,45000
2018-07-23T12:00:03.022Z,45000
2018-07-23T12:05:02.438Z,46000
2018-07-23T12:10:03.047Z,42000
2018-07-23T12:15:02.435Z,46000
2018-07-23T12:20:02.886Z,45000
2018-07-23T12:25:03.318Z,45000
2018-07-23T12:30:02.669Z,45000
2018-07-23T12:35:03.025Z,46000
2018-07-23T12:40:02.687Z,44000
2018-07-23T12:45:02.475Z,44000
2018-07-23T12:50:02.865Z,44000
2018-07-23T12:55:03.238Z,18000
2018-07-23T13:00:03.025Z,40000
2018-07-23T13:05:02.928Z,29000
2018-07-23T13:10:02.380Z,40000
2018-07-23T13:15:02.757Z,40000
2018-07-23T13:20:03.236Z,39000
2018-07-23T13:25:02.615Z,39000
2018-07-23T13:30:03.025Z,36000
2018-07-23T13:35:02.572Z,37000
2018-07-23T13:40:03.045Z,37000
2018-07-23T13:45:02.489Z,38000
2018-07-23T13:50:02.900Z,37000
2018-07-23T13:55:03.338Z,37000
2018-07-23T14:00:02.660Z,33000
2018-07-23T14:05:03.034Z,30000
2018-07-23T14:10:02.524Z,23000
2018-07-23T14:15:03.007Z,31000
2018-07-23T14:20:02.542Z,29000
2018-07-23T14:25:02.930Z,30000
2018-07-23T14:30:03.319Z,29000
2018-07-23T14:35:02.754Z,29000
2018-07-23T14:40:03.192Z,10000
2018-07-23T14:45:02.501Z,26000
2018-07-23T14:50:02.885Z,27000
2018-07-23T14:55:03.289Z,14000
2018-07-23T15:00:02.586Z,27000
2018-07-23T15:05:03.130Z,26000
2018-07-23T15:10:02.566Z,25000
2018-07-23T15:15:02.921Z,24000
2018-07-23T15:20:02.354Z,22000
2018-07-23T15:25:02.792Z,23000
2018-07-23T15:30:03.167Z,16000
2018-07-23T15:35:02.585Z,8000
2018-07-23T15:40:03.008Z,18000
2018-07-23T15:45:02.597Z,4000
2018-07-23T15:50:02.416Z,19000
2018-07-23T15:55:02.943Z,18000
2018-07-23T16:00:03.325Z,17000
2018-07-23T16:05:02.913Z,18000
2018-07-23T16:10:02.371Z,17000
2018-07-23T16:15:02.699Z,15000
2018-07-23T16:20:03.091Z,14000
2018-07-23T16:25:02.417Z,15000
2018-07-23T16:30:02.745Z,13000
2018-07-23T16:35:03.124Z,14000
2018-07-23T16:40:02.453Z,14000
2018-07-23T16:45:02.845Z,13000
2018-07-23T16:50:03.238Z,11000
2018-07-23T16:55:02.609Z,2000
2018-07-23T17:00:03.113Z,10000
2018-07-23T17:05:03.027Z,6000
2018-07-23T17:10:02.445Z,2000
2018-07-23T17:15:02.801Z,2000
2018-07-23T17:20:03.363Z,3000
2018-07-23T17:25:02.705Z,8000
2018-07-23T17:30:03.484Z,2000
2018-07-23T17:35:02.806Z,8000
2018-07-23T17:40:03.206Z,8000
2018-07-23T17:45:02.809Z,7000
2018-07-23T17:50:02.461Z,7000
2018-07-23T17:55:02.941Z,7000
2018-07-23T18:00:02.551Z,7000
2018-07-23T18:05:02.995Z,6000
2018-07-23T18:10:02.572Z,5000
2018-07-23T18:15:02.367Z,5000
2018-07-23T18:20:02.734Z,4000
2018-07-23T18:25:03.116Z,4000
2018-07-23T18:30:02.643Z,2000
2018-07-23T18:35:03.088Z,1000
2018-07-23T18:40:02.522Z,1000
2018-07-23T18:45:02.824Z,1000
2018-07-23T18:50:03.294Z,1000
2018-07-23T18:55:02.658Z,865
2018-07-23T19:00:03.240Z,733
2018-07-23T19:05:03.095Z,626
2018-07-23T19:10:02.647Z,556
2018-07-23T19:15:03.067Z,454
2018-07-23T19:20:02.476Z,388
2018-07-23T19:25:03.071Z,311
2018-07-23T19:30:02.509Z,254
2018-07-23T19:35:03.061Z,135
2018-07-23T19:40:02.628Z,85
2018-07-23T19:45:03.376Z,67
2018-07-23T19:50:02.996Z,54
2018-07-23T19:55:02.503Z,42
2018-07-23T20:00:03.438Z,29
2018-07-23T20:05:02.854Z,14
2018-07-23T20:10:02.633Z,7
2018-07-23T20:15:03.121Z,3
2018-07-23T20:20:02.559Z,1
2018-07-23T20:25:02.974Z,0
2018-07-23T20:30:02.495Z,0
2018-07-23T20:35:03.193Z,0
2018-07-23T20:40:02.977Z,0
2018-07-23T20:45:02.878Z,0
2018-07-23T20:50:02.440Z,0
2018-07-23T20:55:02.981Z,0
2018-07-23T21:00:02.401Z,0
2018-07-23T21:05:02.996Z,0
2018-07-23T21:10:02.524Z,0
2018-07-23T21:15:03.220Z,0
2018-07-23T21:20:03.193Z,0
2018-07-23T21:25:02.636Z,0
2018-07-23T21:30:03.133Z,0
2018-07-23T21:35:02.426Z,0
2018-07-23T21:40:02.854Z,0
2018-07-23T21:45:03.258Z,0
2018-07-23T21:50:02.602Z,0
2018-07-23T21:55:02.940Z,0
2018-07-23T22:00:03.311Z,0
2018-07-23T22:05:02.695Z,0
2018-07-23T22:10:03.121Z,0
2018-07-23T22:15:02.543Z,0
2018-07-23T22:20:02.873Z,0
2018-07-23T22:25:03.352Z,0
2018-07-23T22:30:02.832Z,0
2018-07-23T22:35:02.468Z,0
2018-07-23T22:40:02.941Z,0
2018-07-23T22:45:02.684Z,0
2018-07-23T22:50:03.223Z,0
2018-07-23T22:55:02.544Z,0
2018-07-23T23:00:02.958Z,0
2018-07-23T23:05:02.980Z,0
2018-07-23T23:10:02.480Z,0
2018-07-23T23:15:02.836Z,0
2018-07-23T23:20:03.322Z,0
2018-07-23T23:25:02.775Z,0
2018-07-23T23:30:03.165Z,0
2018-07-23T23:35:02.633Z,0
2018-07-23T23:40:02.452Z,0
2018-07-23T23:45:02.852Z,0
2018-07-23T23:50:03.208Z,0
2018-07-23T23:55:02.515Z,0
